createdAt,value
2019-05-15T00:02:10.870Z,7.27
2019-05-15T00:04:43.705Z,7.23
2019-05-15T00:07:18.192Z,7.17
2019-05-15T00:09:49.395Z,5.63
2019-05-15T00:12:22.178Z,6.33
2019-05-15T00:14:54.548Z,5.23
2019-05-15T00:17:28.259Z,4.90
2019-05-15T00:20:02.572Z,5.63
2019-05-15T00:22:34.590Z,7.67
2019-05-15T00:25:09.228Z,6.03
2019-05-15T00:27:43.601Z,7.03
2019-05-15T00:30:18.207Z,6.47
2019-05-15T00:32:50.524Z,5.40
2019-05-15T00:35:22.875Z,5.37
2019-05-15T00:37:55.127Z,6.83
2019-05-15T00:40:28.894Z,7.10
2019-05-15T00:43:01.256Z,8.30
2019-05-15T00:45:34.555Z,6.97
2019-05-15T00:48:08.831Z,6.07
2019-05-15T00:50:41.174Z,5.30
2019-05-15T00:53:14.788Z,5.47
2019-05-15T00:55:48.579Z,7.97
2019-05-15T00:58:21.233Z,7.90
2019-05-15T01:00:54.661Z,7.80
2019-05-15T01:03:28.189Z,5.33
2019-05-15T01:06:01.421Z,6.40
2019-05-15T01:08:34.892Z,8.00
2019-05-15T01:11:09.339Z,8.00
2019-05-15T01:13:42.459Z,8.77
2019-05-15T01:16:15.369Z,4.90
2019-05-15T01:18:49.184Z,7.77
2019-05-15T01:21:21.682Z,5.67
2019-05-15T01:23:54.108Z,5.77
2019-05-15T01:26:28.247Z,6.07
2019-05-15T01:29:01.638Z,6.20
2019-05-15T01:31:34.002Z,6.20
2019-05-15T01:34:08.857Z,5.20
2019-05-15T01:36:41.568Z,6.33
2019-05-15T01:39:14.901Z,6.50
2019-05-15T01:41:49.561Z,5.40
2019-05-15T01:44:21.813Z,6.50
2019-05-15T01:46:54.625Z,5.33
2019-05-15T01:49:28.003Z,6.33
2019-05-15T01:52:00.174Z,6.20
2019-05-15T01:54:32.071Z,6.17
2019-05-15T01:57:04.432Z,6.67
2019-05-15T01:59:40.197Z,5.77
2019-05-15T02:02:11.443Z,7.30
2019-05-15T02:04:44.786Z,5.47
2019-05-15T02:07:18.672Z,4.33
2019-05-15T02:09:52.176Z,4.47
2019-05-15T02:12:25.706Z,5.00
2019-05-15T02:14:58.758Z,5.53
2019-05-15T02:17:33.025Z,4.73
2019-05-15T02:20:08.239Z,4.53
2019-05-15T02:22:42.423Z,6.53
2019-05-15T02:25:14.733Z,6.27
2019-05-15T02:27:48.012Z,5.97
2019-05-15T02:30:28.419Z,6.10
2019-05-15T02:32:58.703Z,6.13
2019-05-15T02:35:29.681Z,4.90
2019-05-15T02:38:02.353Z,4.27
2019-05-15T02:40:35.373Z,5.23
2019-05-15T02:43:10.052Z,4.73
2019-05-15T02:45:42.744Z,5.13
2019-05-15T02:48:14.798Z,7.57
2019-05-15T02:50:50.075Z,6.07
2019-05-15T02:53:24.980Z,3.73
2019-05-15T02:56:00.096Z,5.30
2019-05-15T02:58:33.354Z,5.90
2019-05-15T03:01:05.493Z,5.63
2019-05-15T03:03:39.373Z,5.67
2019-05-15T03:06:11.832Z,5.60
2019-05-15T03:08:43.973Z,5.70
2019-05-15T03:11:19.029Z,6.20
2019-05-15T03:13:50.679Z,5.07
2019-05-15T03:16:22.924Z,5.10
2019-05-15T03:18:59.551Z,4.20
2019-05-15T03:21:31.631Z,5.97
2019-05-15T03:24:03.947Z,5.70
2019-05-15T03:26:39.197Z,5.20
2019-05-15T03:29:10.125Z,6.57
2019-05-15T03:32:00.788Z,4.67
2019-05-15T03:34:23.095Z,6.03
2019-05-15T03:36:52.919Z,4.13
2019-05-15T03:39:25.320Z,4.90
2019-05-15T03:41:58.895Z,4.93
2019-05-15T03:44:30.938Z,4.80
2019-05-15T03:47:03.723Z,6.60
2019-05-15T03:49:36.053Z,5.27
2019-05-15T03:52:10.015Z,4.50
2019-05-15T03:54:43.432Z,5.10
2019-05-15T03:57:20.052Z,6.70
2019-05-15T03:59:51.080Z,4.27
2019-05-15T04:02:24.011Z,4.20
2019-05-15T04:05:01.666Z,5.30
2019-05-15T04:07:31.645Z,4.40
2019-05-15T04:10:04.017Z,3.90
2019-05-15T04:12:39.842Z,6.53
2019-05-15T04:15:11.359Z,4.47
2019-05-15T04:17:43.390Z,4.30
2019-05-15T04:20:19.847Z,4.53
2019-05-15T04:22:50.907Z,4.70
2019-05-15T04:25:22.806Z,5.87
2019-05-15T04:27:58.823Z,4.83
2019-05-15T04:30:31.482Z,3.70
2019-05-15T04:33:04.214Z,5.87
2019-05-15T04:35:40.172Z,4.00
2019-05-15T04:38:12.196Z,6.67
2019-05-15T04:40:50.070Z,3.83
2019-05-15T04:43:22.206Z,4.07
2019-05-15T04:45:59.216Z,3.57
2019-05-15T04:48:32.812Z,4.57
2019-05-15T04:51:05.864Z,3.93
2019-05-15T04:53:39.424Z,5.00
2019-05-15T04:56:11.286Z,4.50
2019-05-15T04:58:43.895Z,4.20
2019-05-15T05:01:19.986Z,4.63
2019-05-15T05:03:52.706Z,6.43
2019-05-15T05:06:25.800Z,3.80
2019-05-15T05:08:59.943Z,3.63
2019-05-15T05:11:33.993Z,6.00
2019-05-15T05:14:08.559Z,3.73
2019-05-15T05:16:40.273Z,3.37
2019-05-15T05:19:12.994Z,4.53
2019-05-15T05:21:45.102Z,4.30
2019-05-15T05:24:18.555Z,6.70
2019-05-15T05:26:53.072Z,5.57
2019-05-15T05:29:27.988Z,3.77
2019-05-15T05:32:00.805Z,5.07
2019-05-15T05:34:33.165Z,7.80
2019-05-15T05:37:07.788Z,6.77
2019-05-15T05:39:41.377Z,5.57
2019-05-15T05:42:14.502Z,4.97
2019-05-15T05:44:48.897Z,4.53
2019-05-15T05:47:21.054Z,5.07
2019-05-15T05:49:53.201Z,8.23
2019-05-15T05:52:28.021Z,3.93
2019-05-15T05:55:01.246Z,5.53
2019-05-15T05:57:34.215Z,3.67
2019-05-15T06:00:09.171Z,6.00
2019-05-15T06:02:47.594Z,5.63
2019-05-15T06:05:18.507Z,3.57
2019-05-15T06:07:51.664Z,4.40
2019-05-15T06:10:24.962Z,5.50
2019-05-15T06:12:58.730Z,3.70
2019-05-15T06:15:31.295Z,7.07
2019-05-15T06:18:04.006Z,3.37
2019-05-15T06:20:39.338Z,3.30
2019-05-15T06:23:10.911Z,3.73
2019-05-15T06:25:42.941Z,2.87
2019-05-15T06:28:14.951Z,4.37
2019-05-15T06:30:48.584Z,3.53
2019-05-15T06:33:21.616Z,4.13
2019-05-15T06:35:53.923Z,3.37
2019-05-15T06:38:30.925Z,4.40
2019-05-15T06:41:01.212Z,4.17
2019-05-15T06:43:33.249Z,8.43
2019-05-15T06:46:05.797Z,5.23
2019-05-15T06:48:38.898Z,4.33
2019-05-15T06:51:12.609Z,4.87
2019-05-15T06:53:45.626Z,4.63
2019-05-15T06:56:18.919Z,5.30
2019-05-15T06:58:52.975Z,3.40
2019-05-15T07:01:26.574Z,4.00
2019-05-15T07:03:59.317Z,2.70
2019-05-15T07:06:31.769Z,5.00
2019-05-15T07:09:05.780Z,6.97
2019-05-15T07:11:39.727Z,5.33
2019-05-15T07:14:11.880Z,4.07
2019-05-15T07:16:44.057Z,4.40
2019-05-15T07:19:19.032Z,4.00
2019-05-15T07:21:51.367Z,4.30
2019-05-15T07:24:24.390Z,3.00
2019-05-15T07:26:59.148Z,2.87
2019-05-15T07:29:31.288Z,4.70
2019-05-15T07:32:08.079Z,2.87
2019-05-15T07:34:40.123Z,3.83
2019-05-15T07:37:13.693Z,4.80
2019-05-15T07:39:48.616Z,3.80
2019-05-15T07:42:19.802Z,3.30
2019-05-15T07:44:52.191Z,3.03
2019-05-15T07:47:25.320Z,2.57
2019-05-15T07:49:59.026Z,3.23
2019-05-15T07:52:31.389Z,3.17
2019-05-15T07:55:03.839Z,4.37
2019-05-15T07:57:38.899Z,4.57
2019-05-15T08:00:11.104Z,3.10
2019-05-15T08:02:43.539Z,4.00
2019-05-15T08:05:19.037Z,3.10
2019-05-15T08:07:53.364Z,2.40
2019-05-15T08:10:28.452Z,4.20
2019-05-15T08:13:00.556Z,3.07
2019-05-15T08:15:33.428Z,3.83
2019-05-15T08:18:11.907Z,3.40
2019-05-15T08:20:40.742Z,5.33
2019-05-15T08:23:13.861Z,3.10
2019-05-15T08:25:48.290Z,4.13
2019-05-15T08:28:19.512Z,3.53
2019-05-15T08:30:51.491Z,3.83
2019-05-15T08:33:24.403Z,4.53
2019-05-15T08:35:58.624Z,5.90
2019-05-15T08:38:30.200Z,5.20
2019-05-15T08:41:02.140Z,4.60
2019-05-15T08:43:34.758Z,3.30
2019-05-15T08:46:08.542Z,4.63
2019-05-15T08:48:41.974Z,3.87
2019-05-15T08:51:14.001Z,3.47
2019-05-15T08:53:48.828Z,4.30
2019-05-15T08:56:20.573Z,5.53
2019-05-15T08:58:53.497Z,3.17
2019-05-15T09:01:28.623Z,5.43
2019-05-15T09:04:02.487Z,5.07
2019-05-15T09:06:41.340Z,3.70
2019-05-15T09:09:12.129Z,5.93
2019-05-15T09:11:44.062Z,3.27
2019-05-15T09:14:18.639Z,5.70
2019-05-15T09:16:51.915Z,4.60
2019-05-15T09:19:27.958Z,5.07
2019-05-15T09:22:00.373Z,5.60
2019-05-15T09:24:32.620Z,3.40
2019-05-15T09:27:04.895Z,4.27
2019-05-15T09:29:38.179Z,2.63
2019-05-15T09:32:12.604Z,3.67
2019-05-15T09:34:50.660Z,4.27
2019-05-15T09:37:19.101Z,2.63
2019-05-15T09:39:52.941Z,3.53
2019-05-15T09:42:28.508Z,4.43
2019-05-15T09:44:59.965Z,4.43
2019-05-15T09:47:33.865Z,6.53
2019-05-15T09:50:08.368Z,5.37
2019-05-15T09:52:42.768Z,6.40
2019-05-15T09:55:17.901Z,3.20
2019-05-15T09:57:49.636Z,3.73
2019-05-15T10:00:23.576Z,6.80
2019-05-15T10:02:56.159Z,5.90
2019-05-15T10:05:28.200Z,3.90
2019-05-15T10:08:01.015Z,6.23
2019-05-15T10:10:35.090Z,5.37
2019-05-15T10:13:08.995Z,3.37
2019-05-15T10:15:42.412Z,5.43
2019-05-15T10:18:19.223Z,4.53
2019-05-15T10:20:52.264Z,5.70
2019-05-15T10:23:25.698Z,2.90
2019-05-15T10:25:58.944Z,3.20
2019-05-15T10:28:32.131Z,4.13
2019-05-15T10:31:04.745Z,3.53
2019-05-15T10:33:39.183Z,3.07
2019-05-15T10:36:11.624Z,3.97
2019-05-15T10:38:44.703Z,3.03
2019-05-15T10:41:19.309Z,2.93
2019-05-15T10:43:56.590Z,4.27
2019-05-15T10:46:25.763Z,3.73
2019-05-15T10:48:59.698Z,4.37
2019-05-15T10:51:33.046Z,2.13
2019-05-15T10:54:08.349Z,3.47
2019-05-15T10:56:40.516Z,3.80
2019-05-15T10:59:12.534Z,3.30
2019-05-15T11:01:48.481Z,5.50
2019-05-15T11:04:19.723Z,3.40
2019-05-15T11:06:52.104Z,3.10
2019-05-15T11:09:24.705Z,3.30
2019-05-15T11:11:58.427Z,2.80
2019-05-15T11:14:31.059Z,3.07
2019-05-15T11:17:03.348Z,3.50
2019-05-15T11:19:39.646Z,3.40
2019-05-15T11:22:11.453Z,3.73
2019-05-15T11:24:44.764Z,3.83
2019-05-15T11:27:20.152Z,3.03
2019-05-15T11:29:53.622Z,3.50
2019-05-15T11:32:29.184Z,2.97
2019-05-15T11:35:03.976Z,2.93
2019-05-15T11:37:35.097Z,3.13
2019-05-15T11:40:10.080Z,3.67
2019-05-15T11:42:42.834Z,2.93
2019-05-15T11:45:18.584Z,2.83
2019-05-15T11:47:51.006Z,3.07
2019-05-15T11:50:24.079Z,1.30
2019-05-15T11:52:58.580Z,2.63
2019-05-15T11:55:30.798Z,2.37
2019-05-15T11:58:02.899Z,1.50
2019-05-15T12:00:35.468Z,1.93
2019-05-15T12:03:09.169Z,2.00
2019-05-15T12:05:42.387Z,1.30
2019-05-15T12:08:15.190Z,1.47
2019-05-15T12:10:48.966Z,2.23
2019-05-15T12:13:21.333Z,2.40
2019-05-15T12:15:53.802Z,2.00
2019-05-15T12:18:28.459Z,2.53
2019-05-15T12:21:01.468Z,1.20
2019-05-15T12:23:33.925Z,1.93
2019-05-15T12:28:41.747Z,1.03
2019-05-15T12:31:13.670Z,1.80
2019-05-15T12:33:48.972Z,3.87
2019-05-15T12:36:46.120Z,1.93
2019-05-15T12:38:55.398Z,2.37
2019-05-15T13:02:03.789Z,2.67
2019-05-15T13:04:38.812Z,1.63
2019-05-15T13:07:13.835Z,1.17
2019-05-15T13:09:44.378Z,1.80
2019-05-15T13:12:18.332Z,1.57
2019-05-15T13:14:51.215Z,2.63
2019-05-15T13:17:23.299Z,1.60
2019-05-15T13:19:58.656Z,1.50
2019-05-15T13:22:32.402Z,0.93
2019-05-15T13:25:04.940Z,1.20
2019-05-15T13:27:38.423Z,4.43
2019-05-15T13:30:12.312Z,2.07
2019-05-15T13:32:45.038Z,1.47
2019-05-15T13:35:18.880Z,2.63
2019-05-15T13:37:52.627Z,3.13
2019-05-15T13:40:36.956Z,1.70
2019-05-15T13:42:58.950Z,2.93
2019-05-15T13:45:32.684Z,2.90
2019-05-15T13:48:09.492Z,1.50
2019-05-15T13:50:41.491Z,2.23
2019-05-15T13:53:14.626Z,2.83
2019-05-15T13:55:48.355Z,1.50
2019-05-15T13:58:22.288Z,2.40
2019-05-15T14:00:54.208Z,4.67
2019-05-15T14:03:28.486Z,1.80
2019-05-15T14:06:00.525Z,2.27
2019-05-15T14:08:32.588Z,1.93
2019-05-15T14:11:04.485Z,4.17
2019-05-15T14:13:38.944Z,2.03
2019-05-15T14:16:12.164Z,1.47
2019-05-15T14:18:47.859Z,2.40
2019-05-15T14:21:21.277Z,2.53
2019-05-15T14:23:53.712Z,2.57
2019-05-15T14:26:27.101Z,1.53
2019-05-15T14:29:00.292Z,3.43
2019-05-15T14:31:32.466Z,2.07
2019-05-15T14:34:04.390Z,2.77
2019-05-15T14:36:37.175Z,1.77
2019-05-15T14:39:09.339Z,1.73
2019-05-15T14:41:44.038Z,3.43
2019-05-15T14:44:20.774Z,1.70
2019-05-15T14:46:51.554Z,2.37
2019-05-15T14:49:23.608Z,4.63
2019-05-15T14:52:05.694Z,3.40
2019-05-15T14:54:32.171Z,2.63
2019-05-15T14:57:05.442Z,3.07
2019-05-15T14:59:39.221Z,2.53
2019-05-15T15:02:15.176Z,2.33
2019-05-15T15:04:48.709Z,2.80
2019-05-15T15:07:22.110Z,2.13
2019-05-15T15:09:55.678Z,2.20
2019-05-15T15:12:32.090Z,1.77
2019-05-15T15:15:13.875Z,5.30
2019-05-15T15:17:51.563Z,2.27
2019-05-15T15:20:28.159Z,3.57
2019-05-15T15:23:01.402Z,3.80
2019-05-15T15:25:34.052Z,3.77
2019-05-15T15:28:08.283Z,3.37
2019-05-15T15:30:43.272Z,2.73
2019-05-15T15:33:16.642Z,2.77
2019-05-15T15:35:51.241Z,3.20
2019-05-15T15:38:38.188Z,2.63
2019-05-15T15:41:00.428Z,3.47
2019-05-15T15:43:33.908Z,2.47
2019-05-15T15:46:08.428Z,2.63
2019-05-15T15:48:41.623Z,2.73
2019-05-15T15:51:13.698Z,2.40
2019-05-15T15:53:48.019Z,3.13
2019-05-15T15:56:21.800Z,4.20
2019-05-15T15:58:53.755Z,3.17
2019-05-15T16:01:27.695Z,2.87
2019-05-15T16:03:59.737Z,3.07
2019-05-15T16:06:38.736Z,3.13
2019-05-15T16:09:11.945Z,3.83
2019-05-15T16:11:44.327Z,4.07
2019-05-15T16:14:18.018Z,4.37
2019-05-15T16:16:51.272Z,3.03
2019-05-15T16:19:23.252Z,4.13
2019-05-15T16:21:55.145Z,3.30
2019-05-15T16:24:29.151Z,3.43
2019-05-15T16:27:00.897Z,3.87
2019-05-15T16:29:34.456Z,4.20
2019-05-15T16:32:09.049Z,4.00
2019-05-15T16:34:40.926Z,3.90
2019-05-15T16:37:14.299Z,5.10
2019-05-15T16:39:48.666Z,4.43
2019-05-15T16:42:20.549Z,3.37
2019-05-15T16:44:52.887Z,3.30
2019-05-15T16:47:25.246Z,5.07
2019-05-15T16:49:58.714Z,3.57
2019-05-15T16:52:31.558Z,5.10
2019-05-15T16:55:03.709Z,4.03
2019-05-15T16:57:39.644Z,3.40
2019-05-15T17:00:13.406Z,4.63
2019-05-15T17:02:48.230Z,4.77
2019-05-15T17:05:20.342Z,3.53
2019-05-15T17:07:52.144Z,4.10
2019-05-15T17:10:28.157Z,3.17
2019-05-15T17:13:00.349Z,4.07
2019-05-15T17:15:32.674Z,3.50
2019-05-15T17:18:06.001Z,4.37
2019-05-15T17:20:38.848Z,3.47
2019-05-15T17:23:12.186Z,4.83
2019-05-15T17:25:44.011Z,4.17
2019-05-15T17:28:18.344Z,6.20
2019-05-15T17:30:51.051Z,4.63
2019-05-15T17:33:23.286Z,5.43
2019-05-15T17:35:57.919Z,3.87
2019-05-15T17:38:29.114Z,3.47
2019-05-15T17:41:01.651Z,4.17
2019-05-15T17:43:34.870Z,5.27
2019-05-15T17:46:09.519Z,4.67
2019-05-15T17:48:41.379Z,3.40
2019-05-15T17:51:17.662Z,4.03
2019-05-15T17:53:51.018Z,3.13
2019-05-15T17:56:23.600Z,6.00
2019-05-15T17:58:55.412Z,4.13
2019-05-15T18:01:28.555Z,4.20
2019-05-15T18:04:00.385Z,3.43
2019-05-15T18:06:35.211Z,5.07
2019-05-15T18:09:09.121Z,4.13
2019-05-15T18:11:44.645Z,5.00
2019-05-15T18:14:18.132Z,3.73
2019-05-15T18:16:51.050Z,3.57
2019-05-15T18:19:23.340Z,4.60
2019-05-15T18:21:59.068Z,4.87
2019-05-15T18:24:31.435Z,3.40
2019-05-15T18:27:03.855Z,4.80
2019-05-15T18:29:38.712Z,4.13
2019-05-15T18:32:12.100Z,4.10
2019-05-15T18:34:48.688Z,3.47
2019-05-15T18:37:28.333Z,5.50
2019-05-15T18:40:05.332Z,4.13
2019-05-15T18:42:34.831Z,4.37
2019-05-15T18:45:07.919Z,4.67
2019-05-15T18:47:40.318Z,4.60
2019-05-15T18:50:13.710Z,3.83
2019-05-15T18:52:48.670Z,3.70
2019-05-15T18:55:20.622Z,4.40
2019-05-15T18:57:59.415Z,3.50
2019-05-15T19:00:36.027Z,3.53
2019-05-15T19:03:19.106Z,4.80
2019-05-15T19:05:44.193Z,5.43
2019-05-15T19:08:18.799Z,4.03
2019-05-15T19:10:52.509Z,4.03
2019-05-15T19:13:25.519Z,4.57
2019-05-15T19:15:58.475Z,3.83
2019-05-15T19:18:38.613Z,3.40
2019-05-15T19:21:11.193Z,6.03
2019-05-15T19:23:47.795Z,3.20
2019-05-15T19:26:21.846Z,3.93
2019-05-15T19:29:11.446Z,4.23
2019-05-15T19:31:44.522Z,3.87
2019-05-15T19:34:18.812Z,4.77
2019-05-15T19:36:52.551Z,4.03
2019-05-15T19:39:27.867Z,4.30
2019-05-15T19:42:18.173Z,3.23
2019-05-15T19:44:52.652Z,4.77
2019-05-15T19:47:28.173Z,3.87
2019-05-15T19:50:20.079Z,3.93
2019-05-15T19:52:52.557Z,5.07
2019-05-15T19:55:43.574Z,4.03
2019-05-15T19:58:18.321Z,4.60
2019-05-15T20:00:51.642Z,3.40
2019-05-15T20:03:25.573Z,4.63
2019-05-15T20:06:01.148Z,6.40
2019-05-15T20:08:34.570Z,3.80
2019-05-15T20:11:10.378Z,3.67
2019-05-15T20:13:41.780Z,4.10
2019-05-15T20:16:18.321Z,4.53
2019-05-15T20:18:50.124Z,3.50
2019-05-15T20:21:24.265Z,4.67
2019-05-15T20:24:00.630Z,4.40
2019-05-15T20:26:34.187Z,4.37
2019-05-15T20:29:09.083Z,3.57
2019-05-15T20:31:44.008Z,3.90
2019-05-15T20:34:17.131Z,3.70
2019-05-15T20:36:50.202Z,3.40
2019-05-15T20:39:23.483Z,5.17
2019-05-15T20:41:58.429Z,3.10
2019-05-15T20:44:30.336Z,3.70
2019-05-15T20:47:02.202Z,4.53
2019-05-15T20:49:37.688Z,6.73
2019-05-15T20:52:11.702Z,3.73
2019-05-15T20:54:43.614Z,2.90
2019-05-15T20:57:17.494Z,4.30
2019-05-15T20:59:53.449Z,3.27
2019-05-15T21:02:29.030Z,4.30
2019-05-15T21:05:03.207Z,3.57
2019-05-15T21:07:42.768Z,3.47
2019-05-15T21:10:14.500Z,5.60
2019-05-15T21:12:48.596Z,3.93
2019-05-15T21:15:24.216Z,4.53
2019-05-15T21:18:12.649Z,3.77
2019-05-15T21:20:33.686Z,4.37
2019-05-15T21:23:08.919Z,5.03
2019-05-15T21:25:40.326Z,4.07
2019-05-15T21:28:15.283Z,4.43
2019-05-15T21:30:49.576Z,4.13
2019-05-15T21:33:25.338Z,6.20
2019-05-15T21:35:58.694Z,6.43
2019-05-15T21:38:31.750Z,6.70
2019-05-15T21:41:05.096Z,7.13
2019-05-15T21:43:38.285Z,5.80
2019-05-15T21:46:12.205Z,7.43
2019-05-15T21:48:49.001Z,6.97
2019-05-15T21:51:22.108Z,7.13
2019-05-15T21:53:55.302Z,7.13
2019-05-15T21:56:28.498Z,5.93
2019-05-15T21:59:03.279Z,7.40
2019-05-15T22:01:35.407Z,6.87
2019-05-15T22:04:09.330Z,5.93
2019-05-15T22:06:44.492Z,7.50
2019-05-15T22:09:19.921Z,5.87
2019-05-15T22:12:01.428Z,5.97
2019-05-15T22:14:43.782Z,6.87
2019-05-15T22:17:20.134Z,5.43
2019-05-15T22:19:53.248Z,5.53
2019-05-15T22:22:25.245Z,7.57
2019-05-15T22:24:58.362Z,6.90
2019-05-15T22:27:32.384Z,5.77
2019-05-15T22:30:08.297Z,6.47
2019-05-15T22:32:42.302Z,6.60
2019-05-15T22:35:15.298Z,5.67
2019-05-15T22:37:51.184Z,5.33
2019-05-15T22:40:24.383Z,5.30
2019-05-15T22:42:59.186Z,4.80
2019-05-15T22:45:33.063Z,4.77
2019-05-15T22:48:05.974Z,7.00
2019-05-15T22:50:39.104Z,4.67
2019-05-15T22:53:12.087Z,5.80
2019-05-15T22:55:48.511Z,6.37
2019-05-15T22:58:22.186Z,8.67
2019-05-15T23:00:55.560Z,5.50
2019-05-15T23:03:29.298Z,5.50
2019-05-15T23:06:03.586Z,4.87
2019-05-15T23:08:38.205Z,5.40
2019-05-15T23:11:09.673Z,4.83
2019-05-15T23:13:43.038Z,6.03
2019-05-15T23:16:18.216Z,5.87
2019-05-15T23:18:58.655Z,5.47
2019-05-15T23:21:31.494Z,5.50
2019-05-15T23:24:08.357Z,6.33
2019-05-15T23:26:40.683Z,5.97
2019-05-15T23:29:13.790Z,8.07
2019-05-15T23:31:47.196Z,6.07
2019-05-15T23:34:19.595Z,4.37
2019-05-15T23:36:54.077Z,5.53
2019-05-15T23:39:27.161Z,5.77
2019-05-15T23:42:01.519Z,5.57
2019-05-15T23:44:34.407Z,5.23
2019-05-15T23:47:06.342Z,5.13
2019-05-15T23:49:40.233Z,5.80
2019-05-15T23:52:14.284Z,9.27
2019-05-15T23:54:46.601Z,6.60
2019-05-15T23:57:19.378Z,6.47
2019-05-15T23:59:52.634Z,5.07
